Time;durP1;ratioP1;P1;durP2;ratioP2;P2;SDS_P1;SDS_P2;PMS_P1;PMS_P2;Temp;Humidity;BMP_temperature;BMP_pressure;BME280_temperature;BME280_humidity;BME280_pressure;Samples;Min_cycle;Max_cycle;Signal;HPM_P1;HPM_P2
2024/02/02 00:01:25;;;;;;;;;;;1.70;1.00;;;;;;5107785;28;19912;-78
2024/02/02 00:03:50;;;;;;;;;;;1.70;1.00;;;;;;5106833;28;19916;-78
2024/02/02 00:06:17;;;;;;;;;;;1.70;1.00;;;;;;5094693;28;19912;-78
2024/02/02 00:08:43;;;;;;;;;;;1.70;1.00;;;;;;5106949;28;20002;-78
2024/02/02 00:11:23;;;;;;;;;;;1.70;1.00;;;;;;5096030;28;19955;-78
2024/02/02 00:13:53;;;;;;;;;;;1.80;1.00;;;;;;5095178;28;19919;-78
2024/02/02 00:16:23;;;;;;;;;;;1.80;1.00;;;;;;5094580;28;19950;-78
2024/02/02 00:18:49;;;;;;;;;;;1.80;1.00;;;;;;5107780;28;19908;-78
2024/02/02 00:21:14;;;;;;;;;;;1.80;1.00;;;;;;5104681;28;19912;-78
2024/02/02 00:23:41;;;;;;;;;;;1.90;1.00;;;;;;5111121;28;19953;-78
2024/02/02 00:26:29;;;;;;;;;;;1.90;1.00;;;;;;5104476;28;20283;-78
2024/02/02 00:28:59;;;;;;;;;;;1.90;1.00;;;;;;5094107;28;19998;-78
2024/02/02 00:31:29;;;;;;;;;;;2.00;1.00;;;;;;5105241;28;19968;-78
2024/02/02 00:36:59;;;;;;;;;;;2.00;1.00;;;;;;5107363;28;19930;-78
2024/02/02 00:39:29;;;;;;;;;;;2.00;1.00;;;;;;5094554;28;19957;-79
2024/02/02 00:41:59;;;;;;;;;;;2.00;1.00;;;;;;5094633;28;19965;-78
2024/02/02 00:44:29;;;;;;;;;;;2.00;1.00;;;;;;5107477;28;19955;-78
2024/02/02 00:46:59;;;;;;;;;;;2.00;1.00;;;;;;5093481;28;19912;-78
2024/02/02 00:49:25;;;;;;;;;;;2.00;1.00;;;;;;5096137;28;19951;-77
2024/02/02 00:51:59;;;;;;;;;;;2.00;1.00;;;;;;5114525;28;19962;-77
2024/02/02 00:54:29;;;;;;;;;;;2.00;1.00;;;;;;5100401;28;19911;-77
2024/02/02 00:57:29;;;;;;;;;;;2.00;1.00;;;;;;5110649;28;19920;-77
2024/02/02 00:59:59;;;;;;;;;;;2.00;1.00;;;;;;5094072;28;19993;-77
2024/02/02 01:02:29;;;;;;;;;;;2.00;1.00;;;;;;5094386;28;19916;-77
2024/02/02 01:05:05;;;;;;;;;;;2.00;1.00;;;;;;5103272;28;19908;-77
2024/02/02 01:07:35;;;;;;;;;;;2.00;1.00;;;;;;5109008;28;20010;-77
2024/02/02 01:10:05;;;;;;;;;;;2.00;1.00;;;;;;5096239;28;19916;-77
2024/02/02 01:12:32;;;;;;;;;;;2.00;1.00;;;;;;5095835;28;19915;-77
2024/02/02 01:14:59;;;;;;;;;;;2.00;1.00;;;;;;5093345;28;19908;-77
2024/02/02 01:17:29;;;;;;;;;;;2.10;1.00;;;;;;5101048;28;19914;-77
2024/02/02 01:19:55;;;;;;;;;;;2.10;1.00;;;;;;5099560;28;19912;-77
2024/02/02 01:22:21;;;;;;;;;;;2.20;1.00;;;;;;5102505;28;19918;-77
2024/02/02 01:24:47;;;;;;;;;;;2.30;1.00;;;;;;5115599;28;19924;-77
2024/02/02 01:27:13;;;;;;;;;;;2.30;1.00;;;;;;5097398;28;19908;-77
2024/02/02 01:29:39;;;;;;;;;;;2.30;1.00;;;;;;5110559;28;19908;-77
2024/02/02 01:32:05;;;;;;;;;;;2.40;1.00;;;;;;5100013;28;19912;-77
2024/02/02 01:34:59;;;;;;;;;;;2.40;1.00;;;;;;5112061;28;19962;-77
2024/02/02 01:37:30;;;;;;;;;;;2.40;1.00;;;;;;5107195;28;19998;-77
2024/02/02 01:39:59;;;;;;;;;;;2.40;1.00;;;;;;5097223;28;19908;-77
2024/02/02 01:42:29;;;;;;;;;;;2.40;1.00;;;;;;5110383;28;19965;-77
2024/02/02 01:44:59;;;;;;;;;;;2.40;1.00;;;;;;5099506;28;19958;-77
2024/02/02 01:47:29;;;;;;;;;;;2.40;1.00;;;;;;5107990;28;19922;-77
2024/02/02 01:50:06;;;;;;;;;;;2.30;1.00;;;;;;5109564;28;20329;-77
2024/02/02 01:52:41;;;;;;;;;;;2.20;1.00;;;;;;5103214;28;19912;-77
2024/02/02 01:55:29;;;;;;;;;;;2.30;1.00;;;;;;5099341;28;19944;-77
2024/02/02 01:57:59;;;;;;;;;;;2.20;1.00;;;;;;5109205;28;20010;-77
2024/02/02 02:00:29;;;;;;;;;;;2.20;1.00;;;;;;5107289;28;19908;-77
2024/02/02 02:02:55;;;;;;;;;;;2.30;1.00;;;;;;5117652;28;20359;-77
2024/02/02 02:05:21;;;;;;;;;;;2.30;1.00;;;;;;5103454;28;20011;-77
2024/02/02 02:07:47;;;;;;;;;;;2.20;1.00;;;;;;5102676;28;19916;-77
2024/02/02 02:10:24;;;;;;;;;;;2.30;1.00;;;;;;5114484;28;20382;-77
2024/02/02 02:12:59;;;;;;;;;;;2.40;1.00;;;;;;5095740;28;19915;-77
2024/02/02 02:15:29;;;;;;;;;;;2.40;1.00;;;;;;5100274;28;19908;-77
2024/02/02 02:17:59;;;;;;;;;;;2.60;1.00;;;;;;5098471;27;19958;-79
2024/02/02 02:20:29;;;;;;;;;;;2.60;1.00;;;;;;5113298;28;19914;-78
2024/02/02 02:23:00;;;;;;;;;;;2.70;1.00;;;;;;5097260;27;19916;-78
2024/02/02 02:25:30;;;;;;;;;;;2.70;1.00;;;;;;5100518;28;19931;-78
2024/02/02 02:27:59;;;;;;;;;;;2.70;1.00;;;;;;5105257;28;20017;-78
2024/02/02 02:30:25;;;;;;;;;;;2.80;1.00;;;;;;5096830;28;19909;-78
2024/02/02 02:32:50;;;;;;;;;;;2.80;1.00;;;;;;5095234;28;19973;-77
2024/02/02 02:35:17;;;;;;;;;;;2.90;1.00;;;;;;5109454;28;19916;-77
2024/02/02 02:37:43;;;;;;;;;;;2.90;1.00;;;;;;5096069;28;20425;-77
2024/02/02 02:40:11;;;;;;;;;;;6.80;1.00;;;;;;5096321;28;20373;-77
2024/02/02 02:42:53;;;;;;;;;;;3.00;1.00;;;;;;5097237;28;19916;-77
2024/02/02 02:45:29;;;;;;;;;;;3.00;1.00;;;;;;5115913;28;19912;-77
2024/02/02 02:48:05;;;;;;;;;;;3.00;1.00;;;;;;5103086;28;20287;-77
2024/02/02 02:50:31;;;;;;;;;;;3.00;1.00;;;;;;5105872;28;19908;-77
2024/02/02 02:53:17;;;;;;;;;;;3.10;1.00;;;;;;5100760;27;19957;-77
2024/02/02 02:55:47;;;;;;;;;;;3.20;1.00;;;;;;5103054;28;19915;-77
2024/02/02 02:58:13;;;;;;;;;;;3.20;1.00;;;;;;5102917;28;19912;-77
2024/02/02 03:00:38;;;;;;;;;;;3.20;1.00;;;;;;5104391;28;19912;-77
2024/02/02 03:03:17;;;;;;;;;;;3.30;1.00;;;;;;5095568;28;19951;-77
2024/02/02 03:06:17;;;;;;;;;;;3.30;1.00;;;;;;5098845;28;19914;-77
2024/02/02 03:09:00;;;;;;;;;;;3.50;1.00;;;;;;5097977;28;19922;-77
2024/02/02 03:11:29;;;;;;;;;;;3.50;1.00;;;;;;5114833;28;19914;-77
2024/02/02 03:14:23;;;;;;;;;;;3.50;1.00;;;;;;5096864;28;19909;-77
2024/02/02 03:16:59;;;;;;;;;;;3.60;1.00;;;;;;5096949;28;19908;-77
2024/02/02 03:19:25;;;;;;;;;;;3.60;1.00;;;;;;5105415;27;19982;-77
2024/02/02 03:21:59;;;;;;;;;;;3.60;1.00;;;;;;5096125;28;20003;-77
2024/02/02 03:24:35;;;;;;;;;;;3.60;1.00;;;;;;5106739;28;19927;-78
2024/02/02 03:27:18;;;;;;;;;;;3.60;1.00;;;;;;5099693;28;19916;-77
2024/02/02 03:29:47;;;;;;;;;;;3.70;1.00;;;;;;5110217;28;19918;-77
2024/02/02 03:32:35;;;;;;;;;;;3.70;1.00;;;;;;5095413;28;19934;-77
2024/02/02 03:35:01;;;;;;;;;;;3.70;1.00;;;;;;5110157;28;19920;-78
2024/02/02 03:37:29;;;;;;;;;;;3.80;1.00;;;;;;5103401;28;19915;-78
2024/02/02 03:39:55;;;;;;;;;;;3.90;1.00;;;;;;5099775;28;19916;-77
2024/02/02 03:42:23;;;;;;;;;;;4.00;1.00;;;;;;5106408;28;19918;-77
2024/02/02 03:44:53;;;;;;;;;;;4.00;1.00;;;;;;5094009;28;20328;-77
2024/02/02 03:47:47;;;;;;;;;;;4.00;1.00;;;;;;5105378;27;19907;-78
2024/02/02 03:50:13;;;;;;;;;;;4.10;1.00;;;;;;5098593;28;19918;-78
2024/02/02 03:52:39;;;;;;;;;;;4.10;1.00;;;;;;5107300;27;20377;-78
2024/02/02 03:55:17;;;;;;;;;;;4.10;1.00;;;;;;5098639;28;19996;-78
2024/02/02 03:57:43;;;;;;;;;;;4.10;1.00;;;;;;5096858;27;19912;-78
2024/02/02 04:00:17;;;;;;;;;;;4.10;1.00;;;;;;5102809;28;19914;-78
2024/02/02 04:02:46;;;;;;;;;;;4.10;1.00;;;;;;5108328;28;19916;-78
2024/02/02 04:05:23;;;;;;;;;;;4.10;1.00;;;;;;5106721;28;20255;-78
2024/02/02 04:07:59;;;;;;;;;;;4.10;1.00;;;;;;5094402;28;19908;-79
2024/02/02 04:10:29;;;;;;;;;;;4.10;1.00;;;;;;5102499;28;19915;-78
2024/02/02 04:13:01;;;;;;;;;;;4.10;1.00;;;;;;5104789;28;19908;-79
2024/02/02 04:15:27;;;;;;;;;;;4.10;1.00;;;;;;5098598;28;19912;-78
2024/02/02 04:21:05;;;;;;;;;;;4.20;1.00;;;;;;5105314;28;19919;-78
2024/02/02 04:23:35;;;;;;;;;;;4.30;1.00;;;;;;5094107;28;19927;-78
2024/02/02 04:26:01;;;;;;;;;;;4.20;1.00;;;;;;5096320;28;19916;-78
2024/02/02 04:28:35;;;;;;;;;;;4.20;1.00;;;;;;5097304;28;19939;-78
2024/02/02 04:31:17;;;;;;;;;;;4.20;1.00;;;;;;5100221;28;19947;-78
2024/02/02 04:33:47;;;;;;;;;;;4.30;1.00;;;;;;5107985;28;19960;-78
2024/02/02 04:36:13;;;;;;;;;;;4.30;1.00;;;;;;5099531;28;19948;-78
2024/02/02 04:38:39;;;;;;;;;;;4.30;1.00;;;;;;5105714;28;20008;-78
2024/02/02 04:41:05;;;;;;;;;;;4.30;1.00;;;;;;5103459;28;19981;-78
2024/02/02 04:43:42;;;;;;;;;;;4.30;1.00;;;;;;5094060;28;20375;-78
2024/02/02 04:46:23;;;;;;;;;;;4.20;1.00;;;;;;5107105;28;19981;-78
2024/02/02 04:48:59;;;;;;;;;;;4.10;1.00;;;;;;5107579;28;19915;-78
2024/02/02 04:51:29;;;;;;;;;;;4.20;1.00;;;;;;5100666;28;19912;-79
2024/02/02 04:53:55;;;;;;;;;;;4.20;1.00;;;;;;5094891;28;19916;-78
2024/02/02 04:56:23;;;;;;;;;;;4.30;1.00;;;;;;5115701;28;19987;-78
2024/02/02 04:59:05;;;;;;;;;;;4.30;1.00;;;;;;5114058;28;20049;-79
2024/02/02 05:01:35;;;;;;;;;;;4.30;1.00;;;;;;5118592;28;19915;-78
2024/02/02 05:04:05;;;;;;;;;;;4.30;1.00;;;;;;5099793;27;19916;-78
2024/02/02 05:06:41;;;;;;;;;;;4.20;1.00;;;;;;5097776;28;19968;-77
2024/02/02 05:09:29;;;;;;;;;;;4.10;1.00;;;;;;5117823;28;19907;-77
2024/02/02 05:11:55;;;;;;;;;;;4.10;1.00;;;;;;5106125;27;20307;-77
2024/02/02 05:14:23;;;;;;;;;;;4.10;1.00;;;;;;5106868;28;19908;-77
2024/02/02 05:17:05;;;;;;;;;;;4.10;1.00;;;;;;5106583;28;19909;-77
2024/02/02 05:19:31;;;;;;;;;;;4.10;1.00;;;;;;5109559;28;20271;-78
2024/02/02 05:21:57;;;;;;;;;;;4.20;1.00;;;;;;5112904;27;19912;-78
2024/02/02 05:24:23;;;;;;;;;;;4.20;1.00;;;;;;5108685;28;19916;-79
2024/02/02 05:26:53;;;;;;;;;;;4.10;1.00;;;;;;5113506;28;20008;-79
2024/02/02 05:29:48;;;;;;;;;;;4.00;1.00;;;;;;5096302;28;19912;-79
2024/02/02 05:35:17;;;;;;;;;;;4.00;1.00;;;;;;5104063;28;19954;-77
2024/02/02 05:37:47;;;;;;;;;;;4.00;1.00;;;;;;5104270;28;19908;-77
2024/02/02 05:40:17;;;;;;;;;;;4.00;1.00;;;;;;5101209;28;19908;-77
2024/02/02 05:42:59;;;;;;;;;;;4.00;1.00;;;;;;5111395;28;19912;-77
2024/02/02 05:45:25;;;;;;;;;;;4.10;1.00;;;;;;5117808;28;19934;-77
2024/02/02 05:48:05;;;;;;;;;;;4.10;1.00;;;;;;5113963;28;19912;-77
2024/02/02 05:50:42;;;;;;;;;;;4.10;1.00;;;;;;5097100;28;19908;-78
2024/02/02 05:53:29;;;;;;;;;;;4.20;1.00;;;;;;5097298;27;19908;-78
2024/02/02 05:55:59;;;;;;;;;;;4.30;1.00;;;;;;5100020;28;20002;-78
2024/02/02 05:58:41;;;;;;;;;;;4.30;1.00;;;;;;5117451;28;19915;-79
2024/02/02 06:01:29;;;;;;;;;;;4.30;1.00;;;;;;5101665;28;20003;-79
2024/02/02 06:03:59;;;;;;;;;;;4.30;1.00;;;;;;5100569;28;19923;-79
2024/02/02 06:06:25;;;;;;;;;;;4.20;1.00;;;;;;5115111;28;19908;-79
2024/02/02 06:08:53;;;;;;;;;;;4.20;1.00;;;;;;5112714;28;20048;-79
2024/02/02 06:14:53;;;;;;;;;;;4.30;1.00;;;;;;5096665;28;20387;-78
2024/02/02 06:17:23;;;;;;;;;;;4.30;1.00;;;;;;5097713;28;19908;-78
2024/02/02 06:19:49;;;;;;;;;;;4.40;1.00;;;;;;5107383;28;19915;-79
2024/02/02 06:22:14;;;;;;;;;;;4.40;1.00;;;;;;5108169;28;19912;-79
2024/02/02 06:24:40;;;;;;;;;;;4.40;1.00;;;;;;5104803;28;19916;-79
2024/02/02 06:27:22;;;;;;;;;;;4.40;1.00;;;;;;5098765;28;19912;-79
2024/02/02 06:33:11;;;;;;;;;;;4.60;1.00;;;;;;5111635;28;19968;-79
2024/02/02 06:35:47;;;;;;;;;;;4.60;1.00;;;;;;5122375;27;19968;-78
2024/02/02 06:38:29;;;;;;;;;;;4.70;1.00;;;;;;5118189;27;19908;-79
2024/02/02 06:40:55;;;;;;;;;;;4.70;1.00;;;;;;5095284;28;19961;-78
2024/02/02 06:43:47;;;;;;;;;;;4.70;1.00;;;;;;5101189;28;20014;-78
2024/02/02 06:46:23;;;;;;;;;;;4.70;1.00;;;;;;5114295;28;19947;-78
2024/02/02 06:48:49;;;;;;;;;;;4.80;1.00;;;;;;5097628;28;20065;-79
2024/02/02 06:51:29;;;;;;;;;;;4.70;1.00;;;;;;5109177;28;19946;-79
2024/02/02 06:53:55;;;;;;;;;;;4.80;1.00;;;;;;5101299;28;19919;-79
2024/02/02 06:56:37;;;;;;;;;;;4.80;1.00;;;;;;5101726;28;19912;-79
2024/02/02 07:02:16;;;;;;;;;;;4.80;1.00;;;;;;5096806;28;19915;-79
2024/02/02 07:04:41;;;;;;;;;;;4.70;1.00;;;;;;5103995;28;19915;-79
2024/02/02 07:07:17;;;;;;;;;;;4.80;1.00;;;;;;5102580;28;19996;-79
2024/02/02 07:12:57;;;;;;;;;;;4.80;1.00;;;;;;5097055;28;19962;-79
2024/02/02 07:15:25;;;;;;;;;;;4.70;1.00;;;;;;5109007;28;19907;-79
2024/02/02 07:17:59;;;;;;;;;;;4.60;1.00;;;;;;5099798;28;19923;-79
2024/02/02 07:20:32;;;;;;;;;;;4.50;1.00;;;;;;5100016;28;19957;-79
2024/02/02 07:22:59;;;;;;;;;;;4.40;1.00;;;;;;5103825;27;19928;-79
2024/02/02 07:25:42;;;;;;;;;;;4.30;1.00;;;;;;5108107;28;20015;-79
2024/02/02 07:28:26;;;;;;;;;;;4.30;1.00;;;;;;5095991;28;19916;-80
2024/02/02 07:30:57;;;;;;;;;;;4.30;1.00;;;;;;5104278;28;19918;-79
2024/02/02 07:33:25;;;;;;;;;;;4.40;1.00;;;;;;5099890;28;19967;-79
2024/02/02 07:35:51;;;;;;;;;;;4.30;1.00;;;;;;5104208;28;19919;-78
2024/02/02 07:38:23;;;;;;;;;;;4.40;1.00;;;;;;5111594;28;20271;-79
2024/02/02 07:41:17;;;;;;;;;;;4.50;1.00;;;;;;5095063;28;19966;-78
2024/02/02 07:44:05;;;;;;;;;;;4.60;1.00;;;;;;5095196;28;20374;-78
2024/02/02 07:46:35;;;;;;;;;;;4.60;1.00;;;;;;5094767;28;19915;-78
2024/02/02 07:49:17;;;;;;;;;;;4.60;1.00;;;;;;5100526;28;19916;-78
2024/02/02 07:51:59;;;;;;;;;;;4.70;1.00;;;;;;5102249;28;19915;-79
2024/02/02 07:54:25;;;;;;;;;;;4.70;1.00;;;;;;5123515;27;20003;-80
2024/02/02 07:57:23;;;;;;;;;;;4.70;1.00;;;;;;5115104;28;19955;-80
2024/02/02 08:02:59;;;;;;;;;;;4.90;1.00;;;;;;5104145;28;19976;-80
2024/02/02 08:05:47;;;;;;;;;;;4.80;1.00;;;;;;5093764;28;19955;-79
2024/02/02 08:08:36;;;;;;;;;;;4.90;1.00;;;;;;5107390;28;20369;-80
2024/02/02 08:11:05;;;;;;;;;;;5.00;1.00;;;;;;5092292;27;20006;-78
2024/02/02 08:13:49;;;;;;;;;;;5.10;1.00;;;;;;5116891;27;19945;-79
2024/02/02 08:16:23;;;;;;;;;;;5.10;1.00;;;;;;5106958;27;19969;-80
2024/02/02 08:21:55;;;;;;;;;;;5.20;1.00;;;;;;5109889;27;19919;-79
2024/02/02 08:24:47;;;;;;;;;;;5.20;1.00;;;;;;5117429;27;19928;-79
2024/02/02 08:27:23;;;;;;;;;;;5.30;1.00;;;;;;5111465;27;20347;-79
2024/02/02 08:30:23;;;;;;;;;;;5.30;1.00;;;;;;5109605;27;19965;-79
2024/02/02 08:33:13;;;;;;;;;;;5.30;1.00;;;;;;5110727;27;20355;-79
2024/02/02 08:35:41;;;;;;;;;;;5.40;1.00;;;;;;5109263;28;19912;-78
2024/02/02 08:38:17;;;;;;;;;;;5.40;1.00;;;;;;5112647;28;20367;-77
2024/02/02 08:40:44;;;;;;;;;;;5.50;1.00;;;;;;5110572;28;19907;-77
2024/02/02 08:43:19;;;;;;;;;;;5.70;1.00;;;;;;5113152;28;19917;-76
2024/02/02 08:45:57;;;;;;;;;;;5.70;1.00;;;;;;5120139;28;19945;-77
2024/02/02 08:48:22;;;;;;;;;;;5.90;1.00;;;;;;5102406;28;19912;-77
2024/02/02 08:50:48;;;;;;;;;;;6.00;1.00;;;;;;5103208;28;19912;-77
2024/02/02 08:53:35;;;;;;;;;;;6.00;1.00;;;;;;5117442;28;20372;-76
2024/02/02 08:56:11;;;;;;;;;;;6.00;1.00;;;;;;5103790;27;19926;-76
2024/02/02 08:58:41;;;;;;;;;;;6.00;1.00;;;;;;5104210;28;20002;-77
2024/02/02 09:01:38;;;;;;;;;;;6.10;1.00;;;;;;5116533;28;19916;-78
2024/02/02 09:04:31;;;;;;;;;;;6.10;1.00;;;;;;5093012;28;20359;-78
2024/02/02 09:06:57;;;;;;;;;;;6.10;1.00;;;;;;5062203;28;20288;-77
2024/02/02 09:09:35;;;;;;;;;;;6.30;1.00;;;;;;5034589;28;19909;-78
2024/02/02 09:12:18;;;;;;;;;;;6.30;1.00;;;;;;5040023;28;19920;-77
2024/02/02 09:14:53;;;;;;;;;;;6.30;1.00;;;;;;5041004;28;20469;-77
2024/02/02 09:17:29;;;;;;;;;;;6.40;1.00;;;;;;5048382;28;19919;-77
2024/02/02 09:20:11;;;;;;;;;;;6.40;1.00;;;;;;5055240;28;19914;-78
2024/02/02 09:22:41;;;;;;;;;;;6.30;1.00;;;;;;5049653;28;19913;-79
2024/02/02 09:25:20;;;;;;;;;;;6.30;1.00;;;;;;5051613;28;19928;-79
2024/02/02 09:28:05;;;;;;;;;;;6.30;1.00;;;;;;5044556;28;19917;-79
2024/02/02 09:30:41;;;;;;;;;;;6.20;1.00;;;;;;5054230;28;20008;-79
2024/02/02 09:33:32;;;;;;;;;;;6.10;1.00;;;;;;5055674;28;19917;-81
2024/02/02 09:35:58;;;;;;;;;;;6.10;1.00;;;;;;4957771;28;19996;-81
2024/02/02 09:38:36;;;;;;;;;;;6.20;1.00;;;;;;4956450;28;19914;-83
2024/02/02 09:41:15;;;;;;;;;;;6.10;1.00;;;;;;4943710;28;19915;-81
2024/02/02 09:44:05;;;;;;;;;;;6.20;1.00;;;;;;4976983;28;19921;-81
2024/02/02 09:46:45;;;;;;;;;;;6.30;1.00;;;;;;5034506;28;19950;-80
2024/02/02 09:52:38;;;;;;;;;;;6.50;1.00;;;;;;5049668;28;19959;-83
2024/02/02 09:55:29;;;;;;;;;;;6.80;1.00;;;;;;5034308;28;19959;-84
2024/02/02 09:57:59;;;;;;;;;;;7.00;1.00;;;;;;5028006;28;19966;-79
2024/02/02 10:03:50;;;;;;;;;;;7.30;1.00;;;;;;5037427;28;20399;-79
2024/02/02 10:06:37;;;;;;;;;;;7.60;1.00;;;;;;5034582;28;19912;-78
2024/02/02 10:09:23;;;;;;;;;;;7.50;1.00;;;;;;5046035;28;19995;-80
2024/02/02 10:12:18;;;;;;;;;;;7.60;1.00;;;;;;5031019;28;19913;-77
2024/02/02 10:14:52;;;;;;;;;;;7.60;1.00;;;;;;5109427;27;19908;-78
2024/02/02 10:17:21;;;;;;;;;;;7.70;1.00;;;;;;5111993;28;19908;-79
2024/02/02 10:20:04;;;;;;;;;;;7.70;1.00;;;;;;5116688;28;19965;-78
2024/02/02 10:22:40;;;;;;;;;;;7.70;1.00;;;;;;5124807;27;19918;-79
2024/02/02 10:25:16;;;;;;;;;;;7.70;1.00;;;;;;5130375;27;19951;-76
2024/02/02 10:28:07;;;;;;;;;;;7.70;1.00;;;;;;5109959;27;20255;-77
2024/02/02 10:30:53;;;;;;;;;;;7.90;1.00;;;;;;5114716;27;19999;-77
2024/02/02 10:33:28;;;;;;;;;;;7.90;1.00;;;;;;5121331;27;19915;-79
2024/02/02 10:36:32;;;;;;;;;;;8.00;1.00;;;;;;5116411;27;19963;-79
2024/02/02 10:39:17;;;;;;;;;;;8.00;1.00;;;;;;5075944;28;19966;-79
2024/02/02 10:41:59;;;;;;;;;;;8.20;1.00;;;;;;5046038;28;19962;-78
2024/02/02 10:44:47;;;;;;;;;;;8.30;1.00;;;;;;5066572;28;19951;-79
2024/02/02 10:47:23;;;;;;;;;;;8.30;1.00;;;;;;5073354;28;19916;-79
2024/02/02 10:50:18;;;;;;;;;;;8.50;1.00;;;;;;5073499;28;19909;-78
2024/02/02 10:56:05;;;;;;;;;;;8.70;1.00;;;;;;5072833;28;19974;-83
2024/02/02 10:58:55;;;;;;;;;;;8.90;1.00;;;;;;5073656;28;19909;-80
2024/02/02 11:01:41;;;;;;;;;;;8.90;1.00;;;;;;5056750;28;19909;-83
2024/02/02 11:04:44;;;;;;;;;;;8.70;1.00;;;;;;5074390;28;20291;-83
2024/02/02 11:07:11;;;;;;;;;;;8.90;1.00;;;;;;5027000;28;20276;-79
2024/02/02 11:12:48;;;;;;;;;;;9.00;1.00;;;;;;5041233;28;19962;-78
2024/02/02 11:15:23;;;;;;;;;;;9.10;1.00;;;;;;5073156;28;19947;-78
2024/02/02 11:17:59;;;;;;;;;;;9.20;1.00;;;;;;5059439;28;19908;-79
2024/02/02 11:20:34;;;;;;;;;;;9.20;1.00;;;;;;5053724;28;19912;-79
2024/02/02 11:23:05;;;;;;;;;;;9.10;1.00;;;;;;5072977;28;19927;-78
2024/02/02 11:25:53;;;;;;;;;;;9.00;1.00;;;;;;5072233;28;20364;-78
2024/02/02 11:28:34;;;;;;;;;;;9.20;1.00;;;;;;5060353;28;19970;-82
2024/02/02 11:31:05;;;;;;;;;;;9.10;1.00;;;;;;5056429;28;19920;-84
2024/02/02 11:33:54;;;;;;;;;;;9.10;1.00;;;;;;5067886;28;20021;-83
2024/02/02 11:39:40;;;;;;;;;;;9.10;1.00;;;;;;5060033;28;19916;-80
2024/02/02 11:42:29;;;;;;;;;;;9.20;1.00;;;;;;5092717;28;19961;-80
2024/02/02 11:45:00;;;;;;;;;;;9.50;1.00;;;;;;5103408;27;19915;-80
2024/02/02 11:47:47;;;;;;;;;;;9.40;1.00;;;;;;5110387;28;19954;-80
2024/02/02 11:50:16;;;;;;;;;;;9.40;1.00;;;;;;5109429;27;20437;-81
2024/02/02 11:52:51;;;;;;;;;;;9.40;1.00;;;;;;5109232;28;19911;-80
2024/02/02 11:58:21;;;;;;;;;;;9.40;1.00;;;;;;5100998;28;20016;-81
2024/02/02 12:00:55;;;;;;;;;;;9.40;1.00;;;;;;5126622;27;19998;-80
2024/02/02 12:03:39;;;;;;;;;;;9.60;1.00;;;;;;5105267;27;19939;-80
2024/02/02 12:06:19;;;;;;;;;;;9.70;1.00;;;;;;5104095;28;20394;-82
2024/02/02 12:08:50;;;;;;;;;;;9.70;1.00;;;;;;5094548;28;20444;-80
2024/02/02 12:11:26;;;;;;;;;;;9.60;1.00;;;;;;5093022;28;20045;-80
2024/02/02 12:13:57;;;;;;;;;;;9.70;1.00;;;;;;5095798;28;19912;-79
2024/02/02 12:16:23;;;;;;;;;;;9.70;1.00;;;;;;5110940;28;19912;-79
2024/02/02 12:18:49;;;;;;;;;;;9.80;1.00;;;;;;5108659;28;20423;-79
2024/02/02 12:21:17;;;;;;;;;;;9.80;1.00;;;;;;5105185;27;19912;-79
2024/02/02 12:23:47;;;;;;;;;;;9.80;1.00;;;;;;5095434;28;19959;-82
2024/02/02 12:26:18;;;;;;;;;;;9.80;1.00;;;;;;5097684;28;20119;-81
2024/02/02 12:28:59;;;;;;;;;;;9.80;1.00;;;;;;5096583;28;19916;-81
2024/02/02 12:31:48;;;;;;;;;;;9.70;1.00;;;;;;5107399;28;19912;-81
2024/02/02 12:34:47;;;;;;;;;;;9.80;1.00;;;;;;5099834;28;19919;-80
2024/02/02 12:37:29;;;;;;;;;;;10.10;1.00;;;;;;5107383;28;19919;-81
2024/02/02 12:40:20;;;;;;;;;;;10.10;1.00;;;;;;5112076;28;19908;-81
2024/02/02 12:43:17;;;;;;;;;;;10.20;1.00;;;;;;5097886;28;19911;-83
2024/02/02 12:45:54;;;;;;;;;;;10.40;1.00;;;;;;5095193;28;19908;-83
2024/02/02 12:48:36;;;;;;;;;;;10.50;1.00;;;;;;5104465;28;19919;-82
2024/02/02 12:54:12;;;;;;;;;;;10.40;1.00;;;;;;5102183;28;19915;-79
2024/02/02 12:56:54;;;;;;;;;;;10.50;1.00;;;;;;5105120;28;20358;-79
2024/02/02 12:59:36;;;;;;;;;;;10.50;1.00;;;;;;5095869;28;19919;-79
2024/02/02 13:02:01;;;;;;;;;;;10.70;1.00;;;;;;5093919;28;19915;-79
2024/02/02 13:04:36;;;;;;;;;;;10.60;1.00;;;;;;5092618;28;19916;-79
2024/02/02 13:10:11;;;;;;;;;;;10.60;1.00;;;;;;5093539;28;19930;-82
2024/02/02 13:12:53;;;;;;;;;;;10.60;1.00;;;;;;5103139;28;19915;-81
2024/02/02 13:18:23;;;;;;;;;;;10.50;1.00;;;;;;5098263;28;19965;-83
2024/02/02 13:21:17;;;;;;;;;;;10.60;1.00;;;;;;5097687;28;20003;-83
2024/02/02 13:23:55;;;;;;;;;;;10.60;1.00;;;;;;5096663;28;19920;-79
2024/02/02 13:26:39;;;;;;;;;;;10.60;1.00;;;;;;5112726;28;19908;-79
2024/02/02 13:29:07;;;;;;;;;;;10.80;1.00;;;;;;5106318;28;20001;-79
2024/02/02 13:31:48;;;;;;;;;;;10.80;1.00;;;;;;5097722;28;19912;-79
2024/02/02 13:34:18;;;;;;;;;;;10.80;1.00;;;;;;5099743;28;19916;-79
2024/02/02 13:36:48;;;;;;;;;;;11.00;1.00;;;;;;5097505;28;19916;-79
2024/02/02 13:39:18;;;;;;;;;;;11.00;1.00;;;;;;5103338;28;19912;-76
2024/02/02 13:41:47;;;;;;;;;;;11.10;1.00;;;;;;5109559;27;19916;-76
2024/02/02 13:44:16;;;;;;;;;;;11.00;1.00;;;;;;5099180;28;19956;-75
2024/02/02 13:46:48;;;;;;;;;;;11.10;1.00;;;;;;5108303;28;20018;-76
2024/02/02 13:49:32;;;;;;;;;;;11.10;1.00;;;;;;5098013;28;20001;-77
2024/02/02 13:52:05;;;;;;;;;;;11.30;1.00;;;;;;5096287;28;19919;-78
2024/02/02 13:54:36;;;;;;;;;;;11.30;1.00;;;;;;5106976;28;20269;-76
2024/02/02 13:57:07;;;;;;;;;;;11.20;1.00;;;;;;5103793;27;20263;-75
2024/02/02 13:59:33;;;;;;;;;;;11.10;1.00;;;;;;5095815;28;19908;-76
2024/02/02 14:02:12;;;;;;;;;;;11.00;1.00;;;;;;5096930;27;19962;-73
2024/02/02 14:04:38;;;;;;;;;;;11.10;1.00;;;;;;5096629;28;19916;-74
2024/02/02 14:07:14;;;;;;;;;;;11.00;1.00;;;;;;5104614;28;19990;-73
2024/02/02 14:09:41;;;;;;;;;;;11.10;1.00;;;;;;5109413;28;19908;-74
2024/02/02 14:12:07;;;;;;;;;;;11.10;1.00;;;;;;5109943;28;19912;-74
2024/02/02 14:14:33;;;;;;;;;;;11.30;1.00;;;;;;5096689;28;19912;-73
2024/02/02 14:17:06;;;;;;;;;;;11.30;1.00;;;;;;5095525;27;19912;-74
2024/02/02 14:19:32;;;;;;;;;;;11.20;1.00;;;;;;5105737;28;19916;-73
2024/02/02 14:22:08;;;;;;;;;;;11.20;1.00;;;;;;5099050;28;19916;-75
2024/02/02 14:24:44;;;;;;;;;;;11.40;1.00;;;;;;5107937;27;19924;-76
2024/02/02 14:27:10;;;;;;;;;;;11.40;1.00;;;;;;5053715;28;19921;-74
2024/02/02 14:29:40;;;;;;;;;;;11.40;1.00;;;;;;5055589;28;20003;-80
2024/02/02 14:32:06;;;;;;;;;;;11.20;1.00;;;;;;5047562;28;19932;-74
2024/02/02 14:34:31;;;;;;;;;;;11.10;1.00;;;;;;5055144;28;20396;-75
2024/02/02 14:36:57;;;;;;;;;;;11.00;1.00;;;;;;5055525;28;19917;-74
2024/02/02 14:39:23;;;;;;;;;;;11.00;1.00;;;;;;5046288;28;19921;-74
2024/02/02 14:41:49;;;;;;;;;;;10.80;1.00;;;;;;5051889;28;19913;-74
2024/02/02 14:44:15;;;;;;;;;;;10.80;1.00;;;;;;5054417;28;19917;-76
2024/02/02 14:46:41;;;;;;;;;;;10.70;1.00;;;;;;5055703;28;19913;-76
2024/02/02 14:49:07;;;;;;;;;;;10.70;1.00;;;;;;5042972;28;19913;-76
2024/02/02 14:51:36;;;;;;;;;;;10.60;1.00;;;;;;5045685;28;19916;-75
2024/02/02 14:54:03;;;;;;;;;;;10.50;1.00;;;;;;5055975;28;19909;-76
2024/02/02 14:56:28;;;;;;;;;;;10.40;1.00;;;;;;5055479;28;19935;-76
2024/02/02 14:59:07;;;;;;;;;;;10.40;1.00;;;;;;5053865;28;19995;-75
2024/02/02 15:01:34;;;;;;;;;;;10.50;1.00;;;;;;5054808;28;19916;-76
2024/02/02 15:04:00;;;;;;;;;;;10.60;1.00;;;;;;5042114;28;19916;-77
2024/02/02 15:06:25;;;;;;;;;;;10.50;1.00;;;;;;5053667;28;19916;-76
2024/02/02 15:08:51;;;;;;;;;;;10.50;1.00;;;;;;5055309;28;19917;-76
2024/02/02 15:11:36;;;;;;;;;;;10.50;1.00;;;;;;5055380;28;19920;-76
2024/02/02 15:14:01;;;;;;;;;;;10.50;1.00;;;;;;5053201;28;19909;-76
2024/02/02 15:16:30;;;;;;;;;;;10.50;1.00;;;;;;5049009;28;19913;-76
2024/02/02 15:18:56;;;;;;;;;;;10.50;1.00;;;;;;5055332;28;19954;-76
2024/02/02 15:21:34;;;;;;;;;;;10.50;1.00;;;;;;5055356;28;19913;-76
2024/02/02 15:24:24;;;;;;;;;;;10.50;1.00;;;;;;5042440;28;20267;-76
2024/02/02 15:26:54;;;;;;;;;;;10.50;1.00;;;;;;5050277;28;19909;-75
2024/02/02 15:29:20;;;;;;;;;;;10.50;1.00;;;;;;5049404;28;19923;-76
2024/02/02 15:31:48;;;;;;;;;;;10.60;1.00;;;;;;5050293;28;19999;-76
2024/02/02 15:34:13;;;;;;;;;;;10.50;1.00;;;;;;5034991;28;19909;-75
2024/02/02 15:36:39;;;;;;;;;;;10.50;1.00;;;;;;5054336;28;19909;-75
2024/02/02 15:39:05;;;;;;;;;;;10.40;1.00;;;;;;5054378;28;19909;-76
2024/02/02 15:41:37;;;;;;;;;;;10.30;1.00;;;;;;5069095;28;20510;-75
2024/02/02 15:44:03;;;;;;;;;;;10.20;1.00;;;;;;5052711;28;19968;-75
2024/02/02 15:46:29;;;;;;;;;;;10.20;1.00;;;;;;5054465;28;19971;-76
2024/02/02 15:48:54;;;;;;;;;;;10.20;1.00;;;;;;5053619;28;19915;-76
2024/02/02 15:51:20;;;;;;;;;;;10.20;1.00;;;;;;5046971;28;20008;-72
2024/02/02 15:54:00;;;;;;;;;;;10.10;1.00;;;;;;5053751;28;19937;-75
2024/02/02 15:56:54;;;;;;;;;;;10.10;1.00;;;;;;5052654;28;19912;-82
2024/02/02 16:05:43;;;;;;;;;;;9.90;1.00;;;;;;5053463;28;19979;-81
2024/02/02 16:08:12;;;;;;;;;;;9.90;1.00;;;;;;5054256;28;19956;-81
2024/02/02 16:10:48;;;;;;;;;;;9.90;1.00;;;;;;5054694;28;19913;-88
2024/02/02 16:13:14;;;;;;;;;;;9.70;1.00;;;;;;5054202;28;19909;-74
2024/02/02 16:15:42;;;;;;;;;;;9.70;1.00;;;;;;5052725;28;19959;-75
2024/02/02 16:18:08;;;;;;;;;;;9.60;1.00;;;;;;5046822;28;20007;-74
2024/02/02 16:20:35;;;;;;;;;;;9.50;1.00;;;;;;5053848;28;19956;-74
2024/02/02 16:23:06;;;;;;;;;;;9.40;1.00;;;;;;5052741;28;20032;-74
2024/02/02 16:31:40;;;;;;;;;;;9.40;1.00;;;;;;5041579;28;19932;-81